createdAt,value
2022-10-19T00:01:22.495Z,75.64
2022-10-19T00:03:56.003Z,75.37
2022-10-19T00:06:30.517Z,75.51
2022-10-19T00:09:05.959Z,75.70
2022-10-19T00:11:36.283Z,75.66
2022-10-19T00:14:05.235Z,75.74
2022-10-19T00:16:37.137Z,75.71
2022-10-19T00:19:09.611Z,75.42
2022-10-19T00:21:39.383Z,75.62
2022-10-19T00:24:08.315Z,75.61
2022-10-19T00:26:36.933Z,75.67
2022-10-19T00:29:07.561Z,75.63
2022-10-19T00:31:35.805Z,75.39
2022-10-19T00:34:03.879Z,75.21
2022-10-19T00:36:35.940Z,75.27
2022-10-19T00:39:06.367Z,75.40
2022-10-19T00:41:36.488Z,75.21
2022-10-19T00:44:06.403Z,75.26
2022-10-19T00:46:37.660Z,75.04
2022-10-19T00:49:17.911Z,74.99
2022-10-19T00:51:49.664Z,74.91
2022-10-19T00:54:18.247Z,75.04
2022-10-19T00:56:49.289Z,75.17
2022-10-19T00:59:21.044Z,75.24
2022-10-19T01:01:49.631Z,75.08
2022-10-19T01:04:20.361Z,74.90
2022-10-19T01:06:48.534Z,75.07
2022-10-19T01:09:17.528Z,75.33
2022-10-19T01:12:04.340Z,75.36
2022-10-19T01:14:47.975Z,75.27
2022-10-19T01:17:18.813Z,75.15
2022-10-19T01:20:01.836Z,75.19
2022-10-19T01:22:38.608Z,75.15
2022-10-19T01:25:32.896Z,75.34
2022-10-19T01:28:27.200Z,75.45
2022-10-19T01:31:27.509Z,75.73
2022-10-19T01:34:08.995Z,75.43
2022-10-19T01:36:47.203Z,75.54
2022-10-19T01:39:45.345Z,75.62
2022-10-19T01:42:32.705Z,75.89
2022-10-19T01:45:19.820Z,76.00
2022-10-19T01:48:01.614Z,75.79
2022-10-19T01:50:39.516Z,75.65
2022-10-19T01:53:11.071Z,75.97
2022-10-19T01:55:43.134Z,75.97
2022-10-19T01:58:17.453Z,76.13
2022-10-19T02:00:48.912Z,76.00
2022-10-19T02:03:18.614Z,76.25
2022-10-19T02:05:49.550Z,76.05
2022-10-19T02:08:24.279Z,76.06
2022-10-19T02:10:53.994Z,76.19
2022-10-19T02:13:23.904Z,76.58
2022-10-19T02:15:55.150Z,76.39
2022-10-19T02:18:30.081Z,76.37
2022-10-19T02:20:58.665Z,76.35
2022-10-19T02:23:27.964Z,76.38
2022-10-19T02:25:57.163Z,76.61
2022-10-19T02:28:28.106Z,76.65
2022-10-19T02:30:57.401Z,76.85
2022-10-19T02:33:26.292Z,76.96
2022-10-19T02:35:54.670Z,76.60
2022-10-19T02:38:24.383Z,76.79
2022-10-19T02:41:08.835Z,76.59
2022-10-19T02:43:39.979Z,76.75
2022-10-19T02:46:16.754Z,76.95
2022-10-19T02:48:44.831Z,77.20
2022-10-19T02:51:33.684Z,76.95
2022-10-19T02:54:05.007Z,77.16
2022-10-19T02:56:35.485Z,77.33
2022-10-19T02:59:03.939Z,77.38
2022-10-19T03:01:32.221Z,77.91
2022-10-19T03:04:00.188Z,78.26
2022-10-19T03:06:28.256Z,77.99
2022-10-19T03:08:56.328Z,77.90
2022-10-19T03:11:24.400Z,78.22
2022-10-19T03:13:52.372Z,78.27
2022-10-19T03:16:20.542Z,78.36
2022-10-19T03:18:49.830Z,78.14
2022-10-19T03:21:19.141Z,78.13
2022-10-19T03:23:47.214Z,78.36
2022-10-19T03:26:17.538Z,78.35
2022-10-19T03:28:46.012Z,78.58
2022-10-19T03:31:14.192Z,78.50
2022-10-19T03:33:42.266Z,78.60
2022-10-19T03:36:20.587Z,78.59
2022-10-19T03:38:56.429Z,78.76
2022-10-19T03:41:27.062Z,78.82
2022-10-19T03:43:55.180Z,78.83
2022-10-19T03:46:23.715Z,78.66
2022-10-19T03:48:51.703Z,78.58
2022-10-19T03:51:26.074Z,79.02
2022-10-19T03:53:56.330Z,79.34
2022-10-19T03:56:26.140Z,79.18
2022-10-19T03:58:55.951Z,78.83
2022-10-19T04:01:27.391Z,78.30
2022-10-19T04:03:57.419Z,78.01
2022-10-19T04:06:37.678Z,77.41
2022-10-19T04:09:08.000Z,77.28
2022-10-19T04:11:36.576Z,77.20
2022-10-19T04:14:04.887Z,77.10
2022-10-19T04:16:33.571Z,77.07
2022-10-19T04:19:01.924Z,77.29
2022-10-19T04:21:39.932Z,77.46
2022-10-19T04:24:14.042Z,77.70
2022-10-19T04:29:29.692Z,77.85
2022-10-19T04:31:59.785Z,77.81
2022-10-19T04:34:27.937Z,77.76
2022-10-19T04:36:59.586Z,78.04
2022-10-19T04:39:28.285Z,77.97
2022-10-19T04:41:56.450Z,78.05
2022-10-19T04:46:57.301Z,77.85
2022-10-19T04:49:25.289Z,77.95
2022-10-19T04:51:53.239Z,78.16
2022-10-19T04:54:21.310Z,78.05
2022-10-19T04:56:50.304Z,78.07
2022-10-19T04:59:18.273Z,77.57
2022-10-19T05:01:47.472Z,77.78
2022-10-19T05:04:15.746Z,77.65
2022-10-19T05:06:43.767Z,77.46
2022-10-19T05:09:12.198Z,77.51
2022-10-19T05:11:40.272Z,77.37
2022-10-19T05:14:08.855Z,77.12
2022-10-19T05:16:36.923Z,76.88
2022-10-19T05:19:04.996Z,76.87
2022-10-19T05:21:33.356Z,77.00
2022-10-19T05:24:01.341Z,76.95
2022-10-19T05:26:30.436Z,76.72
2022-10-19T05:29:02.753Z,76.45
2022-10-19T05:31:33.645Z,76.31
2022-10-19T05:34:04.081Z,76.47
2022-10-19T05:36:38.188Z,76.43
2022-10-19T05:39:09.328Z,76.58
2022-10-19T05:41:37.604Z,76.49
2022-10-19T05:44:05.781Z,76.33
2022-10-19T05:46:34.634Z,76.28
2022-10-19T05:49:02.842Z,76.01
2022-10-19T05:51:30.913Z,75.84
2022-10-19T05:53:59.090Z,75.98
2022-10-19T05:56:30.852Z,76.15
2022-10-19T05:59:00.044Z,76.12
2022-10-19T06:01:29.697Z,75.99
2022-10-19T06:03:59.770Z,75.92
2022-10-19T06:06:28.250Z,75.68
2022-10-19T06:08:57.244Z,75.73
2022-10-19T06:11:31.257Z,75.76
2022-10-19T06:13:59.940Z,75.61
2022-10-19T06:16:30.470Z,75.46
2022-10-19T06:18:59.671Z,75.61
2022-10-19T06:21:30.196Z,75.39
2022-10-19T06:24:01.033Z,75.25
2022-10-19T06:26:30.130Z,75.06
2022-10-19T06:29:00.804Z,75.22
2022-10-19T06:31:34.155Z,75.05
2022-10-19T06:34:02.690Z,74.95
2022-10-19T06:36:31.682Z,75.19
2022-10-19T06:39:01.879Z,75.11
2022-10-19T06:41:31.471Z,75.05
2022-10-19T06:44:02.594Z,74.91
2022-10-19T06:46:30.779Z,75.18
2022-10-19T06:49:02.239Z,75.16
2022-10-19T06:51:32.526Z,75.24
2022-10-19T06:54:00.951Z,75.33
2022-10-19T06:56:29.103Z,75.13
2022-10-19T06:58:58.289Z,75.23
2022-10-19T07:01:26.552Z,75.18
2022-10-19T07:03:55.468Z,75.19
2022-10-19T07:06:23.969Z,75.10
2022-10-19T07:08:52.635Z,75.37
2022-10-19T07:11:22.780Z,75.29
2022-10-19T07:13:53.445Z,75.29
2022-10-19T07:16:22.277Z,75.18
2022-10-19T07:18:52.499Z,75.08
2022-10-19T07:21:22.719Z,74.56
2022-10-19T07:23:51.630Z,74.41
2022-10-19T07:26:28.969Z,73.95
2022-10-19T07:28:57.589Z,73.80
2022-10-19T07:31:28.628Z,73.91
2022-10-19T07:33:59.357Z,73.42
2022-10-19T07:36:29.450Z,72.92
2022-10-19T07:38:57.958Z,72.73
2022-10-19T07:41:26.839Z,72.03
2022-10-19T07:43:55.715Z,72.39
2022-10-19T07:46:37.534Z,71.74
2022-10-19T07:49:11.322Z,71.70
2022-10-19T07:51:40.434Z,71.27
2022-10-19T07:54:09.174Z,71.33
2022-10-19T07:56:37.492Z,71.09
2022-10-19T07:59:05.955Z,70.96
2022-10-19T08:01:38.437Z,70.81
2022-10-19T08:06:54.670Z,69.76
2022-10-19T08:09:51.051Z,69.68
2022-10-19T08:12:14.833Z,69.80
2022-10-19T08:14:43.354Z,69.51
2022-10-19T08:17:12.146Z,68.89
2022-10-19T08:19:43.615Z,69.07
2022-10-19T08:22:12.176Z,68.75
2022-10-19T08:24:40.247Z,68.10
2022-10-19T08:27:08.465Z,67.99
2022-10-19T08:29:36.697Z,67.89
2022-10-19T08:32:05.667Z,67.61
2022-10-19T08:34:34.786Z,68.00
2022-10-19T08:37:10.273Z,67.52
2022-10-19T08:39:48.238Z,67.81
2022-10-19T08:42:26.536Z,67.78
2022-10-19T08:45:03.532Z,67.26
2022-10-19T08:48:14.708Z,67.79
2022-10-19T08:50:45.442Z,68.00
2022-10-19T08:53:39.421Z,68.27
2022-10-19T08:59:47.144Z,68.59
2022-10-19T09:02:56.685Z,68.55
2022-10-19T09:05:38.490Z,68.16
2022-10-19T09:08:14.152Z,68.05
2022-10-19T09:10:50.801Z,68.51
2022-10-19T09:14:00.457Z,68.48
2022-10-19T09:16:31.795Z,68.70
2022-10-19T09:18:59.867Z,68.73
2022-10-19T09:21:57.327Z,68.90
2022-10-19T09:24:50.592Z,68.58
2022-10-19T09:27:29.416Z,68.38
2022-10-19T09:30:02.704Z,67.93
2022-10-19T09:32:39.315Z,68.03
2022-10-19T09:35:32.538Z,67.06
2022-10-19T09:38:01.332Z,65.53
2022-10-19T09:40:30.912Z,64.73
2022-10-19T09:42:59.721Z,65.00
2022-10-19T09:45:42.847Z,64.50
2022-10-19T09:48:50.443Z,64.96
2022-10-19T09:51:20.058Z,65.40
2022-10-19T09:53:52.527Z,64.66
2022-10-19T09:56:26.240Z,65.01
2022-10-19T09:58:57.635Z,64.42
2022-10-19T10:01:42.917Z,64.04
2022-10-19T10:04:17.375Z,64.13
2022-10-19T10:06:48.894Z,64.45
2022-10-19T10:09:26.522Z,64.42
2022-10-19T10:11:59.060Z,63.10
2022-10-19T10:14:35.159Z,63.29
2022-10-19T10:17:23.577Z,63.59
2022-10-19T10:19:57.823Z,62.72
2022-10-19T10:22:32.646Z,62.58
2022-10-19T10:25:01.590Z,63.40
2022-10-19T10:27:32.245Z,62.74
2022-10-19T10:30:09.871Z,62.95
2022-10-19T10:32:45.860Z,63.10
2022-10-19T10:35:33.251Z,63.36
2022-10-19T10:38:09.003Z,63.08
2022-10-19T10:40:38.817Z,62.69
2022-10-19T10:43:15.079Z,62.54
2022-10-19T10:45:53.391Z,62.73
2022-10-19T10:48:30.679Z,62.25
2022-10-19T10:51:01.310Z,62.71
2022-10-19T10:53:39.518Z,62.79
2022-10-19T10:56:27.251Z,62.63
2022-10-19T10:59:10.786Z,62.28
2022-10-19T11:01:57.051Z,62.19
2022-10-19T11:04:31.709Z,62.44
2022-10-19T11:07:05.412Z,62.31
2022-10-19T11:09:42.699Z,61.53
2022-10-19T11:12:16.506Z,61.74
2022-10-19T11:14:49.695Z,62.36
2022-10-19T11:17:22.990Z,62.64
2022-10-19T11:19:51.779Z,62.62
2022-10-19T11:22:28.863Z,62.46
2022-10-19T11:25:18.437Z,62.62
2022-10-19T11:28:14.261Z,62.24
2022-10-19T11:31:12.643Z,62.12
2022-10-19T11:33:53.615Z,60.95
2022-10-19T11:36:47.056Z,60.13
2022-10-19T11:39:42.086Z,60.99
2022-10-19T11:42:16.093Z,61.34
2022-10-19T11:44:53.381Z,61.56
2022-10-19T11:47:43.469Z,61.58
2022-10-19T11:50:20.555Z,61.64
2022-10-19T11:53:27.330Z,62.07
2022-10-19T11:56:08.406Z,61.76
2022-10-19T11:58:50.404Z,61.32
2022-10-19T12:01:33.630Z,61.44
2022-10-19T12:04:16.552Z,61.41
2022-10-19T12:07:04.385Z,61.03
2022-10-19T12:09:44.746Z,60.56
2022-10-19T12:12:39.235Z,60.49
2022-10-19T12:15:33.726Z,60.20
2022-10-19T12:18:09.992Z,60.45
2022-10-19T12:20:49.839Z,60.19
2022-10-19T12:23:39.824Z,60.48
2022-10-19T12:26:11.515Z,59.87
2022-10-19T12:28:42.006Z,60.23
2022-10-19T12:31:12.029Z,60.07
2022-10-19T12:33:47.641Z,60.58
2022-10-19T12:36:46.978Z,60.55
2022-10-19T12:39:34.913Z,60.33
2022-10-19T12:42:12.100Z,60.17
2022-10-19T12:45:05.877Z,60.55
2022-10-19T12:47:34.613Z,60.73
2022-10-19T12:50:02.942Z,60.77
2022-10-19T12:52:48.518Z,61.07
2022-10-19T12:55:27.240Z,61.01
2022-10-19T12:58:00.533Z,61.30
2022-10-19T13:00:34.833Z,61.60
2022-10-19T13:03:07.838Z,61.87
2022-10-19T13:05:36.349Z,61.87
2022-10-19T13:08:09.240Z,62.11
2022-10-19T13:10:40.174Z,62.11
2022-10-19T13:13:46.614Z,62.24
2022-10-19T13:16:38.663Z,62.52
2022-10-19T13:19:12.349Z,62.78
2022-10-19T13:21:51.892Z,62.83
2022-10-19T13:24:32.394Z,62.90
2022-10-19T13:27:03.500Z,62.39
2022-10-19T13:29:37.308Z,62.52
2022-10-19T13:32:41.690Z,62.74
2022-10-19T13:35:31.694Z,62.81
2022-10-19T13:38:15.152Z,62.93
2022-10-19T13:40:48.949Z,62.75
2022-10-19T13:43:47.533Z,62.91
2022-10-19T13:46:38.850Z,62.70
2022-10-19T13:49:32.619Z,63.03
2022-10-19T13:52:38.686Z,63.00
2022-10-19T13:55:25.292Z,63.11
2022-10-19T13:58:16.198Z,63.33
2022-10-19T14:00:58.402Z,63.27
2022-10-19T14:03:35.791Z,63.61
2022-10-19T14:06:24.678Z,64.23
2022-10-19T14:09:33.683Z,65.32
2022-10-19T14:12:29.884Z,65.69
2022-10-19T14:14:58.599Z,66.02
2022-10-19T14:17:34.166Z,66.30
2022-10-19T14:20:04.237Z,66.79
2022-10-19T14:22:34.318Z,67.12
2022-10-19T14:25:18.241Z,67.15
2022-10-19T14:27:48.344Z,67.48
2022-10-19T14:30:24.609Z,67.30
2022-10-19T14:32:56.875Z,67.53
2022-10-19T14:35:32.117Z,67.52
2022-10-19T14:38:00.701Z,67.58
2022-10-19T14:40:42.702Z,67.63
2022-10-19T14:43:28.895Z,67.85
2022-10-19T14:46:06.394Z,68.22
2022-10-19T14:48:37.020Z,68.66
2022-10-19T14:51:17.275Z,68.91
2022-10-19T14:53:58.351Z,69.23
2022-10-19T14:56:54.214Z,69.77
2022-10-19T14:59:31.293Z,69.86
2022-10-19T15:02:04.252Z,70.18
2022-10-19T15:04:38.154Z,70.34
2022-10-19T15:07:18.936Z,70.64
2022-10-19T15:09:57.026Z,70.69
2022-10-19T15:12:39.192Z,70.76
2022-10-19T15:15:15.492Z,70.66
2022-10-19T15:18:01.852Z,71.04
2022-10-19T15:20:49.486Z,70.95
2022-10-19T15:23:35.322Z,71.28
2022-10-19T15:26:20.664Z,71.40
2022-10-19T15:28:49.783Z,71.60
2022-10-19T15:31:17.751Z,71.36
2022-10-19T15:33:52.151Z,71.48
2022-10-19T15:36:22.089Z,71.65
2022-10-19T15:39:25.246Z,71.96
2022-10-19T15:41:53.874Z,72.06
2022-10-19T15:44:43.132Z,72.14
2022-10-19T15:47:20.303Z,71.97
2022-10-19T15:49:54.532Z,72.15
2022-10-19T15:52:27.008Z,72.50
2022-10-19T15:54:57.536Z,72.77
2022-10-19T15:57:31.786Z,72.95
2022-10-19T16:00:07.969Z,73.43
2022-10-19T16:02:36.086Z,73.76
2022-10-19T16:05:08.199Z,73.74
2022-10-19T16:07:39.438Z,73.85
2022-10-19T16:10:14.638Z,73.86
2022-10-19T16:12:42.914Z,74.12
2022-10-19T16:15:23.581Z,74.22
2022-10-19T16:17:58.715Z,74.26
2022-10-19T16:20:28.939Z,74.17
2022-10-19T16:22:57.733Z,74.03
2022-10-19T16:25:28.051Z,74.21
2022-10-19T16:27:56.019Z,74.47
2022-10-19T16:30:24.607Z,74.61
2022-10-19T16:32:52.674Z,74.64
2022-10-19T16:35:20.646Z,74.42
2022-10-19T16:37:48.612Z,74.46
2022-10-19T16:40:16.684Z,74.29
2022-10-19T16:42:44.653Z,74.44
2022-10-19T16:45:12.825Z,74.55
2022-10-19T16:47:40.784Z,74.62
2022-10-19T16:50:11.243Z,74.59
2022-10-19T16:52:39.474Z,74.66
2022-10-19T16:55:08.437Z,74.67
2022-10-19T16:57:37.278Z,74.81
2022-10-19T17:00:07.085Z,74.87
2022-10-19T17:02:35.572Z,75.00
2022-10-19T17:05:04.053Z,74.95
2022-10-19T17:07:32.023Z,75.14
2022-10-19T17:10:00.028Z,75.34
2022-10-19T17:12:28.063Z,75.55
2022-10-19T17:15:11.628Z,75.41
2022-10-19T17:17:43.972Z,75.61
2022-10-19T17:20:11.971Z,75.54
2022-10-19T17:22:40.009Z,75.61
2022-10-19T17:25:09.897Z,75.61
2022-10-19T17:27:37.992Z,75.62
2022-10-19T17:30:06.991Z,75.57
2022-10-19T17:32:35.861Z,75.57
2022-10-19T17:35:04.627Z,75.51
2022-10-19T17:37:32.754Z,75.62
2022-10-19T17:40:01.014Z,75.52
2022-10-19T17:42:29.292Z,75.65
2022-10-19T17:44:57.364Z,75.57
2022-10-19T17:47:25.330Z,75.44
2022-10-19T17:49:53.402Z,75.42
2022-10-19T17:52:21.576Z,75.55
2022-10-19T17:55:11.308Z,75.53
2022-10-19T17:57:37.701Z,75.51
2022-10-19T18:00:07.500Z,75.60
2022-10-19T18:02:40.839Z,75.68
2022-10-19T18:05:09.462Z,75.49
2022-10-19T18:07:37.668Z,75.58
2022-10-19T18:10:06.337Z,75.59
2022-10-19T18:12:34.409Z,75.49
2022-10-19T18:15:02.402Z,75.52
2022-10-19T18:17:30.551Z,75.52
2022-10-19T18:19:58.521Z,75.58
2022-10-19T18:22:26.899Z,75.53
2022-10-19T18:24:54.970Z,75.40
2022-10-19T18:27:23.043Z,75.73
2022-10-19T18:29:52.170Z,75.72
2022-10-19T18:32:20.210Z,75.50
2022-10-19T18:34:48.407Z,75.75
2022-10-19T18:37:16.394Z,75.71
2022-10-19T18:39:44.730Z,75.45
2022-10-19T18:42:13.005Z,75.50
2022-10-19T18:44:40.975Z,75.51
2022-10-19T18:47:09.047Z,75.74
2022-10-19T18:49:37.222Z,75.68
2022-10-19T18:52:05.496Z,76.27
2022-10-19T18:54:33.776Z,76.94
2022-10-19T18:57:02.027Z,76.64
2022-10-19T18:59:30.238Z,76.58
2022-10-19T19:01:58.334Z,76.57
2022-10-19T19:04:26.467Z,76.69
2022-10-19T19:06:54.450Z,76.42
2022-10-19T19:09:22.508Z,76.04
2022-10-19T19:11:51.707Z,75.58
2022-10-19T19:14:24.182Z,75.30
2022-10-19T19:16:52.481Z,74.97
2022-10-19T19:19:20.739Z,75.18
2022-10-19T19:21:49.992Z,74.87
2022-10-19T19:24:20.438Z,74.55
2022-10-19T19:26:52.422Z,74.41
2022-10-19T19:29:21.722Z,74.56
2022-10-19T19:31:50.420Z,74.40
2022-10-19T19:34:18.480Z,74.06
2022-10-19T19:36:48.410Z,73.95
2022-10-19T19:39:20.341Z,73.85
2022-10-19T19:41:50.051Z,73.93
2022-10-19T19:44:18.969Z,74.00
2022-10-19T19:46:47.029Z,73.88
2022-10-19T19:49:15.099Z,73.91
2022-10-19T19:51:43.273Z,73.82
2022-10-19T19:54:11.856Z,73.68
2022-10-19T19:56:42.297Z,73.24
2022-10-19T19:59:12.712Z,73.39
2022-10-19T20:01:41.869Z,73.36
2022-10-19T20:04:11.001Z,73.45
2022-10-19T20:06:40.425Z,73.34
2022-10-19T20:09:08.974Z,72.84
2022-10-19T20:11:41.243Z,72.92
2022-10-19T20:14:11.993Z,72.77
2022-10-19T20:16:40.269Z,72.04
2022-10-19T20:19:13.668Z,71.97
2022-10-19T20:21:41.739Z,71.79
2022-10-19T20:24:10.525Z,71.79
2022-10-19T20:26:38.480Z,71.38
2022-10-19T20:29:06.776Z,71.31
2022-10-19T20:31:39.639Z,71.14
2022-10-19T20:34:14.059Z,71.06
2022-10-19T20:36:42.524Z,70.74
2022-10-19T20:39:11.023Z,70.96
2022-10-19T20:41:39.106Z,70.86
2022-10-19T20:44:07.383Z,70.43
2022-10-19T20:46:37.206Z,70.57
2022-10-19T20:49:05.679Z,70.25
2022-10-19T20:51:37.098Z,70.59
2022-10-19T20:54:07.326Z,70.34
2022-10-19T20:56:37.263Z,70.68
2022-10-19T20:59:08.103Z,70.79
2022-10-19T21:01:38.274Z,70.63
2022-10-19T21:04:08.554Z,71.05
2022-10-19T21:06:45.626Z,71.11
2022-10-19T21:09:16.651Z,70.80
2022-10-19T21:11:46.306Z,70.77
2022-10-19T21:14:17.449Z,70.55
2022-10-19T21:16:45.795Z,70.27
2022-10-19T21:19:17.349Z,70.32
2022-10-19T21:21:48.980Z,70.63
2022-10-19T21:24:18.818Z,70.77
2022-10-19T21:26:47.849Z,71.02
2022-10-19T21:29:17.242Z,70.96
2022-10-19T21:31:48.925Z,70.91
2022-10-19T21:34:21.140Z,71.09
2022-10-19T21:36:49.207Z,70.73
2022-10-19T21:39:18.407Z,70.85
2022-10-19T21:41:47.203Z,70.86
2022-10-19T21:44:17.313Z,70.84
2022-10-19T21:46:47.987Z,70.83
2022-10-19T21:49:16.544Z,71.04
2022-10-19T21:51:57.051Z,71.13
2022-10-19T21:54:25.574Z,71.18
2022-10-19T21:56:55.934Z,71.01
2022-10-19T21:59:24.890Z,70.84
2022-10-19T22:01:55.056Z,70.58
2022-10-19T22:04:24.514Z,70.79
2022-10-19T22:06:52.593Z,70.92
2022-10-19T22:09:22.193Z,70.45
2022-10-19T22:11:50.368Z,70.26
2022-10-19T22:14:18.624Z,70.41
2022-10-19T22:16:47.020Z,70.64
2022-10-19T22:19:15.298Z,70.51
2022-10-19T22:21:43.370Z,70.62
2022-10-19T22:24:14.698Z,70.87
2022-10-19T22:26:50.861Z,70.82
2022-10-19T22:29:19.363Z,71.32
2022-10-19T22:31:47.535Z,71.35
2022-10-19T22:34:17.127Z,71.40
2022-10-19T22:36:45.931Z,71.43
2022-10-19T22:39:14.615Z,71.61
2022-10-19T22:41:42.583Z,71.79
2022-10-19T22:44:10.569Z,71.56
2022-10-19T22:46:38.626Z,71.85
2022-10-19T22:49:06.622Z,71.65
2022-10-19T22:51:34.869Z,71.63
2022-10-19T22:54:03.043Z,71.90
2022-10-19T22:56:31.015Z,71.68
2022-10-19T22:59:04.102Z,71.53
2022-10-19T23:01:33.039Z,71.97
2022-10-19T23:04:01.267Z,72.08
2022-10-19T23:06:30.055Z,72.15
2022-10-19T23:08:58.102Z,71.96
2022-10-19T23:11:26.392Z,71.96
2022-10-19T23:13:54.381Z,72.12
2022-10-19T23:16:22.375Z,72.49
2022-10-19T23:18:50.518Z,72.19
2022-10-19T23:21:19.406Z,72.22
2022-10-19T23:23:47.376Z,72.38
2022-10-19T23:26:18.211Z,72.06
2022-10-19T23:28:49.149Z,71.77
2022-10-19T23:31:25.730Z,71.49
2022-10-19T23:33:54.564Z,71.48
2022-10-19T23:36:25.855Z,71.52
2022-10-19T23:38:55.465Z,71.39
2022-10-19T23:41:23.643Z,71.21
2022-10-19T23:43:51.997Z,71.65
2022-10-19T23:46:20.189Z,70.92
2022-10-19T23:48:48.282Z,71.04
2022-10-19T23:51:19.611Z,71.17
2022-10-19T23:53:49.625Z,70.81
2022-10-19T23:56:24.048Z,71.04
2022-10-19T23:58:53.555Z,71.11
